Time;durP1;ratioP1;P1;durP2;ratioP2;P2;SDS_P1;SDS_P2;PMS_P1;PMS_P2;Temp;Humidity;BMP_temperature;BMP_pressure;BME280_temperature;BME280_humidity;BME280_pressure;Samples;Min_cycle;Max_cycle;Signal;HPM_P1;HPM_P2
2022/12/24 00:00:16;;;;;;;22.55;20.13;;;;;;;8.03;100.00;95946.28;5065083;28;20541;-59
2022/12/24 00:02:42;;;;;;;27.15;22.38;;;;;;;7.99;100.00;95952.72;5059815;28;20491;-60
2022/12/24 00:05:08;;;;;;;26.17;21.83;;;;;;;7.99;100.00;95966.66;5066907;28;20048;-68
2022/12/24 00:07:33;;;;;;;25.73;20.77;;;;;;;7.97;100.00;95965.94;5067770;28;20033;-68
2022/12/24 00:09:58;;;;;;;30.45;23.48;;;;;;;7.98;100.00;95974.66;5070142;28;20506;-68
2022/12/24 00:12:24;;;;;;;29.05;18.33;;;;;;;7.93;100.00;95988.13;5065689;28;20516;-67
2022/12/24 00:14:50;;;;;;;22.70;20.20;;;;;;;7.97;100.00;96007.06;5066648;28;20032;-68
2022/12/24 00:17:15;;;;;;;22.42;20.13;;;;;;;7.97;100.00;96002.66;5052438;28;20045;-68
2022/12/24 00:19:42;;;;;;;19.85;18.02;;;;;;;7.98;100.00;96006.13;5070085;28;20782;-68
2022/12/24 00:22:07;;;;;;;21.23;19.05;;;;;;;8.14;100.00;96014.44;5065376;28;20115;-63
2022/12/24 00:24:32;;;;;;;20.90;18.60;;;;;;;8.08;100.00;96003.63;5068913;28;20112;-59
2022/12/24 00:26:58;;;;;;;21.70;19.52;;;;;;;8.06;100.00;95997.63;5068292;28;20066;-59
2022/12/24 00:29:23;;;;;;;20.48;18.42;;;;;;;8.06;100.00;95989.75;5068209;28;20043;-59
2022/12/24 00:31:48;;;;;;;19.08;17.33;;;;;;;8.06;100.00;95987.16;5065193;28;20036;-59
2022/12/24 00:34:14;;;;;;;17.85;16.15;;;;;;;8.09;100.00;96002.66;5068312;28;20037;-59
2022/12/24 00:36:39;;;;;;;19.25;17.33;;;;;;;8.06;100.00;96001.09;5069110;28;20063;-59
2022/12/24 00:39:04;;;;;;;17.73;16.05;;;;;;;8.08;100.00;96007.06;5069847;28;20042;-59
2022/12/24 00:41:30;;;;;;;23.63;21.23;;;;;;;8.12;100.00;95999.81;5065307;28;20043;-64
2022/12/24 00:43:58;;;;;;;18.40;16.70;;;;;;;8.17;100.00;96005.53;5070606;28;20111;-67
2022/12/24 00:46:25;;;;;;;12.57;11.52;;;;;;;8.23;100.00;96002.41;5069099;28;20572;-67
2022/12/24 00:48:50;;;;;;;14.93;13.50;;;;;;;8.29;100.00;95996.72;5069193;28;20102;-67
2022/12/24 00:51:17;;;;;;;19.17;17.20;;;;;;;8.24;100.00;96001.44;5065850;28;20036;-67
2022/12/24 00:53:42;;;;;;;17.35;15.65;;;;;;;8.22;100.00;96002.53;5067264;28;20040;-68
2022/12/24 00:56:08;;;;;;;15.57;14.20;;;;;;;8.21;100.00;96012.19;5070656;28;20421;-68
2022/12/24 00:58:34;;;;;;;15.80;14.23;;;;;;;8.19;100.00;96000.97;5069952;28;20502;-67
2022/12/24 01:00:59;;;;;;;15.00;13.43;;;;;;;8.19;100.00;96000.16;5065917;28;20051;-66
2022/12/24 01:03:36;;;;;;;14.32;13.07;;;;;;;8.18;100.00;95996.69;5070350;28;20037;-60
2022/12/24 01:06:05;;;;;;;14.15;12.82;;;;;;;8.19;100.00;96000.97;5069313;28;20518;-60
2022/12/24 01:08:31;;;;;;;14.30;12.95;;;;;;;8.21;100.00;96009.56;5068005;28;20482;-60
2022/12/24 01:10:56;;;;;;;15.52;14.02;;;;;;;8.16;100.00;96014.34;5064965;28;20041;-60
2022/12/24 01:13:22;;;;;;;14.20;12.93;;;;;;;8.17;100.00;96014.22;5070147;28;20041;-60
2022/12/24 01:15:47;;;;;;;14.73;13.13;;;;;;;8.12;100.00;96015.53;5067853;28;20595;-60
2022/12/24 01:18:13;;;;;;;15.80;14.27;;;;;;;8.09;100.00;96021.03;5068841;28;20489;-60
2022/12/24 01:20:38;;;;;;;15.60;14.13;;;;;;;8.13;100.00;96035.56;5064984;28;20029;-68
2022/12/24 01:23:04;;;;;;;31.35;26.95;;;;;;;8.24;100.00;96040.81;5069227;28;20582;-60
2022/12/24 01:25:29;;;;;;;18.20;16.48;;;;;;;8.21;100.00;96041.03;5065045;28;20064;-60
2022/12/24 01:27:55;;;;;;;16.60;14.95;;;;;;;8.16;100.00;96043.19;5068703;28;20028;-60
2022/12/24 01:30:20;;;;;;;15.50;14.00;;;;;;;8.10;100.00;96043.66;5063898;28;20503;-60
2022/12/24 01:32:46;;;;;;;15.48;14.07;;;;;;;8.10;100.00;96030.56;5066366;28;20086;-60
2022/12/24 01:35:11;;;;;;;16.08;14.68;;;;;;;8.09;100.00;96049.88;5066548;28;20044;-60
2022/12/24 01:37:37;;;;;;;19.30;17.48;;;;;;;8.11;100.00;96061.06;5067576;28;20032;-60
2022/12/24 01:45:52;;;;;;;19.83;14.77;;;;;;;8.22;100.00;96047.97;5067909;28;20086;-63
2022/12/24 01:48:38;;;;;;;17.58;15.68;;;;;;;8.25;100.00;96047.72;5068916;28;20052;-63
2022/12/24 01:51:07;;;;;;;18.98;16.63;;;;;;;8.23;100.00;96039.13;5069474;28;20486;-64
2022/12/24 01:53:36;;;;;;;16.55;14.40;;;;;;;8.20;100.00;96049.88;5069370;28;20075;-63
2022/12/24 01:56:05;;;;;;;19.80;16.52;;;;;;;8.19;100.00;96050.00;5067722;28;20530;-63
2022/12/24 01:58:32;;;;;;;19.13;15.65;;;;;;;8.21;100.00;96033.16;5067296;28;20032;-59
2022/12/24 02:00:57;;;;;;;15.63;14.02;;;;;;;8.24;100.00;96034.72;5063642;28;20559;-59
2022/12/24 02:03:23;;;;;;;17.50;15.88;;;;;;;8.23;100.00;96038.31;5062129;28;20119;-59
2022/12/24 02:05:52;;;;;;;15.05;13.65;;;;;;;8.23;100.00;96049.63;5067324;28;20087;-59
2022/12/24 02:08:18;;;;;;;13.93;12.55;;;;;;;8.25;100.00;96033.78;5069448;28;20097;-59
2022/12/24 02:10:48;;;;;;;13.40;12.25;;;;;;;8.25;100.00;96042.47;5067084;28;20051;-59
2022/12/24 02:13:17;;;;;;;13.77;12.48;;;;;;;8.25;100.00;96055.59;5068722;28;20101;-59
2022/12/24 02:16:04;;;;;;;13.30;12.10;;;;;;;8.21;100.00;96062.03;5067638;28;20032;-59
2022/12/24 02:18:38;;;;;;;12.82;11.68;;;;;;;8.19;100.00;96057.88;5067423;28;20040;-67
2022/12/24 02:21:33;;;;;;;12.38;11.32;;;;;;;8.17;100.00;96040.44;5068113;28;20048;-60
2022/12/24 02:24:43;;;;;;;12.77;11.68;;;;;;;8.17;100.00;96052.72;5065223;28;20390;-60
2022/12/24 02:27:21;;;;;;;11.85;10.52;;;;;;;8.13;100.00;96051.31;5027544;28;20048;-60
2022/12/24 02:29:58;;;;;;;9.25;8.45;;;;;;;8.11;100.00;96059.28;5067023;28;20044;-61
2022/12/24 02:32:26;;;;;;;9.13;8.30;;;;;;;8.12;100.00;96060.13;5068554;28;20411;-60
2022/12/24 02:35:01;;;;;;;7.75;7.10;;;;;;;8.15;100.00;96060.69;5066709;28;20051;-60
2022/12/24 02:37:51;;;;;;;6.90;6.40;;;;;;;8.19;100.00;96063.13;5059955;28;20087;-67
2022/12/24 02:40:23;;;;;;;8.25;7.50;;;;;;;8.20;100.00;96070.84;5060363;28;20040;-60
2022/12/24 02:42:55;;;;;;;7.75;6.90;;;;;;;8.21;100.00;96066.44;5063341;28;20108;-60
2022/12/24 02:45:26;;;;;;;7.85;7.15;;;;;;;8.18;100.00;96051.78;5066283;28;20028;-60
2022/12/24 02:47:54;;;;;;;7.25;6.65;;;;;;;8.16;100.00;96057.13;5066309;28;20170;-60
2022/12/24 02:50:19;;;;;;;7.40;6.80;;;;;;;8.14;100.00;96056.41;5067610;28;20036;-60
2022/12/24 02:52:46;;;;;;;7.68;6.97;;;;;;;8.13;100.00;96059.16;5066765;28;20040;-60
2022/12/24 02:55:38;;;;;;;7.18;6.57;;;;;;;8.12;100.00;96054.88;5065205;28;20037;-59
2022/12/24 02:58:35;;;;;;;8.13;7.45;;;;;;;8.13;100.00;96054.75;5065359;28;20099;-66
2022/12/24 03:01:15;;;;;;;;;;;;;;;8.10;100.00;96056.78;5066674;28;20041;-59
2022/12/24 03:04:18;;;;;;;7.68;6.97;;;;;;;8.10;100.00;96060.22;5067068;28;19912;-58
2022/12/24 03:07:01;;;;;;;6.97;6.45;;;;;;;8.11;100.00;96054.03;5061419;28;20045;-59
2022/12/24 03:09:38;;;;;;;6.47;5.88;;;;;;;8.11;100.00;96048.78;5065106;28;20062;-58
2022/12/24 03:12:09;;;;;;;6.70;6.05;;;;;;;8.09;100.00;96057.75;5066215;28;20555;-59
2022/12/24 03:14:38;;;;;;;7.15;6.47;;;;;;;8.07;100.00;96067.47;5065361;28;20031;-64
2022/12/24 03:17:03;;;;;;;6.43;5.93;;;;;;;8.03;100.00;96075.59;5064054;28;20036;-66
2022/12/24 03:19:30;;;;;;;6.85;5.68;;;;;;;8.03;100.00;96069.53;5060883;28;20101;-59
2022/12/24 03:21:58;;;;;;;7.03;6.43;;;;;;;8.06;100.00;96057.94;5067173;28;20143;-59
2022/12/24 03:24:23;;;;;;;7.13;6.43;;;;;;;8.06;100.00;96057.94;5066428;28;20040;-59
2022/12/24 03:26:50;;;;;;;5.50;5.10;;;;;;;8.06;100.00;96071.06;5064035;28;20046;-59
2022/12/24 03:29:16;;;;;;;5.07;4.25;;;;;;;7.99;100.00;96062.84;5067783;28;20029;-59
2022/12/24 03:31:47;;;;;;;3.53;3.22;;;;;;;7.98;100.00;96061.19;5067773;28;20041;-59
2022/12/24 03:34:14;;;;;;;2.70;2.50;;;;;;;7.97;100.00;96055.09;5067834;28;20067;-62
2022/12/24 03:36:39;;;;;;;5.72;3.33;;;;;;;7.97;100.00;96056.88;5062738;28;20041;-62
2022/12/24 03:39:06;;;;;;;5.78;3.92;;;;;;;7.98;100.00;96056.75;5064560;28;20029;-60
2022/12/24 03:41:31;;;;;;;4.47;4.18;;;;;;;7.98;100.00;96042.81;5065135;28;20035;-60
2022/12/24 03:43:57;;;;;;;4.60;3.70;;;;;;;7.99;100.00;96047.13;5067582;28;20115;-61
2022/12/24 03:46:22;;;;;;;3.63;3.42;;;;;;;7.96;100.00;96032.44;5070415;28;20988;-61
2022/12/24 03:48:48;;;;;;;5.00;4.50;;;;;;;7.92;100.00;96017.91;5071672;28;20044;-61
2022/12/24 03:51:17;;;;;;;4.80;4.47;;;;;;;7.89;100.00;96011.09;5067782;28;20589;-61
2022/12/24 03:53:43;;;;;;;5.35;4.95;;;;;;;7.87;100.00;96017.44;5071588;28;20025;-65
2022/12/24 03:56:08;;;;;;;5.95;5.13;;;;;;;7.84;100.00;96012.38;5069829;28;20085;-63
2022/12/24 03:58:33;;;;;;;6.63;5.55;;;;;;;7.83;100.00;96005.47;5069407;28;20155;-61
2022/12/24 04:00:59;;;;;;;4.40;4.00;;;;;;;7.83;100.00;96005.47;5071540;28;20135;-61
2022/12/24 04:03:24;;;;;;;6.65;5.28;;;;;;;7.83;100.00;96005.47;5067177;28;20106;-61
2022/12/24 04:06:03;;;;;;;5.93;5.32;;;;;;;7.91;100.00;96003.13;5069859;28;20025;-60
2022/12/24 04:08:28;;;;;;;5.57;4.60;;;;;;;7.83;100.00;96001.09;5067025;28;20032;-61
2022/12/24 04:10:53;;;;;;;5.25;4.80;;;;;;;7.80;100.00;96000.47;5069176;28;20035;-60
2022/12/24 04:13:19;;;;;;;8.52;3.92;;;;;;;7.80;100.00;95990.00;5067099;28;20497;-64
2022/12/24 04:15:44;;;;;;;4.43;4.05;;;;;;;7.77;100.00;96004.19;5067701;28;20565;-65
2022/12/24 04:18:09;;;;;;;3.85;3.55;;;;;;;7.77;100.00;96008.56;5068034;28;20594;-67
2022/12/24 04:20:35;;;;;;;5.15;3.28;;;;;;;7.76;100.00;96026.09;5069968;28;20405;-67
2022/12/24 04:23:00;;;;;;;4.03;3.40;;;;;;;7.76;100.00;96022.63;5066759;28;20514;-67
2022/12/24 04:25:25;;;;;;;6.55;3.05;;;;;;;7.79;100.00;96018.00;5070563;28;20421;-68
2022/12/24 04:27:51;;;;;;;3.42;2.75;;;;;;;7.80;100.00;96017.06;5070065;28;20489;-67
2022/12/24 04:30:16;;;;;;;2.15;2.00;;;;;;;7.81;100.00;96002.16;5070174;28;20052;-67
2022/12/24 04:32:41;;;;;;;3.97;2.47;;;;;;;7.80;100.00;96000.47;5067824;28;20040;-59
2022/12/24 04:35:07;;;;;;;2.85;2.65;;;;;;;7.77;100.00;96017.28;5070487;28;20169;-59
2022/12/24 04:37:33;;;;;;;2.78;2.58;;;;;;;7.73;100.00;96015.84;5067847;28;20190;-63
2022/12/24 04:39:58;;;;;;;4.15;3.03;;;;;;;7.73;100.00;96000.09;5067029;28;20458;-64
2022/12/24 04:42:24;;;;;;;3.60;3.15;;;;;;;7.73;100.00;96007.97;5066126;28;20054;-63
2022/12/24 04:44:49;;;;;;;13.27;6.20;;;;;;;7.73;100.00;95998.34;5068721;28;20024;-64
2022/12/24 04:47:14;;;;;;;4.03;3.70;;;;;;;7.69;100.00;96004.75;5068626;28;20036;-63
2022/12/24 04:49:40;;;;;;;2.83;2.33;;;;;;;7.68;100.00;96008.34;5069122;28;20033;-63
2022/12/24 04:52:05;;;;;;;3.10;2.50;;;;;;;7.72;100.00;96004.53;5067416;28;20040;-65
2022/12/24 04:54:30;;;;;;;2.42;2.25;;;;;;;7.76;100.00;95997.28;5063046;28;20027;-59
2022/12/24 04:56:56;;;;;;;5.50;3.03;;;;;;;7.68;100.00;95999.63;5070742;28;20490;-63
2022/12/24 04:59:21;;;;;;;6.10;3.72;;;;;;;7.63;100.00;96007.84;5067951;28;20044;-63
2022/12/24 05:01:46;;;;;;;3.38;3.08;;;;;;;7.60;100.00;96006.28;5070104;28;20039;-63
2022/12/24 05:04:12;;;;;;;3.03;2.55;;;;;;;7.60;100.00;96000.19;5069201;28;20492;-63
2022/12/24 05:06:37;;;;;;;3.22;2.92;;;;;;;7.60;100.00;96010.69;5068201;28;20573;-63
2022/12/24 05:09:03;;;;;;;3.67;3.38;;;;;;;7.63;100.00;96017.50;5062915;28;20090;-64
2022/12/24 05:11:29;;;;;;;26.65;17.52;;;;;;;7.62;100.00;96015.81;5069041;28;20032;-60
2022/12/24 05:13:55;;;;;;;54.03;32.58;;;;;;;7.62;100.00;96011.41;5068453;28;20064;-63
2022/12/24 05:16:21;;;;;;;12.57;8.90;;;;;;;7.58;100.00;96013.44;5068731;28;20048;-60
2022/12/24 05:18:47;;;;;;;7.97;7.15;;;;;;;7.58;100.00;96017.81;5067297;28;20387;-61
2022/12/24 05:21:16;;;;;;;13.52;7.03;;;;;;;7.57;100.00;96010.91;5063512;28;20040;-61
2022/12/24 05:26:33;;;;;;;4.83;4.40;;;;;;;7.59;100.00;96003.78;5069162;28;20040;-60
2022/12/24 05:29:00;;;;;;;12.57;10.05;;;;;;;7.60;100.00;96002.81;5065044;28;20050;-60
2022/12/24 05:31:27;;;;;;;71.07;40.47;;;;;;;7.58;100.00;95997.72;5064391;28;20020;-67
2022/12/24 05:33:53;;;;;;;50.28;29.27;;;;;;;7.57;100.00;95995.19;5068264;28;20384;-59
2022/12/24 05:36:19;;;;;;;51.17;31.25;;;;;;;7.57;100.00;96003.91;5066920;28;20125;-59
2022/12/24 05:38:45;;;;;;;22.23;15.40;;;;;;;7.63;100.00;96005.25;5064559;28;20525;-59
2022/12/24 05:41:10;;;;;;;19.15;13.05;;;;;;;7.60;100.00;96018.53;5066375;28;20032;-59
2022/12/24 05:43:36;;;;;;;7.72;5.10;;;;;;;7.56;100.00;96036.31;5066895;28;20524;-59
2022/12/24 05:46:05;;;;;;;6.50;4.50;;;;;;;7.55;100.00;96044.25;5067328;28;20037;-59
2022/12/24 05:48:31;;;;;;;6.90;3.90;;;;;;;7.55;100.00;96044.25;5067394;28;20119;-59
2022/12/24 05:50:56;;;;;;;5.45;4.30;;;;;;;7.56;100.00;96040.69;5067930;28;20550;-58
2022/12/24 05:53:22;;;;;;;5.22;4.72;;;;;;;7.57;100.00;96047.59;5064110;28;20040;-60
2022/12/24 05:55:47;;;;;;;4.95;4.55;;;;;;;7.60;100.00;96053.47;5062300;28;20146;-61
2022/12/24 05:58:13;;;;;;;5.85;5.25;;;;;;;7.65;100.00;96045.25;5066512;28;20036;-61
2022/12/24 06:00:39;;;;;;;13.50;10.65;;;;;;;7.63;100.00;96041.94;5068906;28;20040;-61
2022/12/24 06:03:04;;;;;;;18.20;12.88;;;;;;;7.65;100.00;96055.75;5069122;28;20448;-60
2022/12/24 06:05:30;;;;;;;33.90;21.45;;;;;;;7.61;100.00;96043.78;5027394;28;1098049;-61
2022/12/24 06:07:55;;;;;;;16.90;10.43;;;;;;;7.59;100.00;96045.69;5065838;28;20060;-60
2022/12/24 06:10:21;;;;;;;11.00;7.43;;;;;;;7.60;100.00;96037.75;5068190;28;20150;-59
2022/12/24 06:12:46;;;;;;;16.75;11.10;;;;;;;7.59;100.00;96040.47;5061463;28;20056;-60
2022/12/24 06:15:11;;;;;;;14.48;12.95;;;;;;;7.60;100.00;96040.34;5067043;28;20036;-60
2022/12/24 06:17:37;;;;;;;14.32;9.80;;;;;;;7.54;100.00;96035.59;5068828;28;20474;-61
2022/12/24 06:20:02;;;;;;;9.05;7.90;;;;;;;7.52;100.00;96039.25;5068713;28;20568;-60
2022/12/24 06:22:28;;;;;;;6.47;5.88;;;;;;;7.50;100.00;96041.16;5062430;28;20051;-60
2022/12/24 06:24:53;;;;;;;9.50;5.85;;;;;;;7.48;100.00;96043.88;5065486;28;20510;-60
2022/12/24 06:27:19;;;;;;;15.25;10.60;;;;;;;7.51;100.00;96037.59;5047851;28;20101;-61
2022/12/24 06:29:45;;;;;;;14.15;10.70;;;;;;;7.51;100.00;96054.13;5066924;28;20044;-63
2022/12/24 06:32:10;;;;;;;9.70;6.53;;;;;;;7.63;100.00;96047.16;5066412;28;20040;-59
2022/12/24 06:34:35;;;;;;;9.95;5.60;;;;;;;7.81;100.00;96041.47;5061924;28;20025;-59
2022/12/24 06:37:01;;;;;;;15.13;12.35;;;;;;;7.68;100.00;96041.56;5067510;28;20032;-59
2022/12/24 06:39:27;;;;;;;14.82;11.23;;;;;;;7.61;100.00;96030.69;5064125;28;20041;-58
2022/12/24 06:41:52;;;;;;;10.57;9.48;;;;;;;7.54;100.00;96027.72;5067062;28;20042;-58
2022/12/24 06:44:17;;;;;;;11.48;9.07;;;;;;;7.49;100.00;96016.72;5067154;28;20063;-58
2022/12/24 06:46:43;;;;;;;10.63;8.80;;;;;;;7.53;100.00;96012.09;5066549;28;20060;-59
2022/12/24 06:49:08;;;;;;;16.40;8.65;;;;;;;7.47;100.00;96002.09;5067457;28;20036;-61
2022/12/24 06:51:33;;;;;;;9.98;8.30;;;;;;;7.45;100.00;95989.94;5065230;28;21002;-58
2022/12/24 06:53:59;;;;;;;16.65;15.02;;;;;;;7.44;100.00;95984.81;5068773;28;20044;-59
2022/12/24 06:56:24;;;;;;;14.07;12.10;;;;;;;7.44;100.00;95980.41;5059142;28;20035;-59
2022/12/24 06:58:50;;;;;;;12.68;10.60;;;;;;;7.40;100.00;95989.44;5069383;28;20036;-59
2022/12/24 07:01:17;;;;;;;11.18;10.07;;;;;;;7.39;100.00;95966.00;5068367;28;20036;-59
2022/12/24 07:03:43;;;;;;;10.55;8.80;;;;;;;7.37;100.00;95970.50;5066530;28;20067;-58
2022/12/24 07:06:19;;;;;;;11.10;9.70;;;;;;;7.40;100.00;95975.53;5063557;28;20088;-61
2022/12/24 07:08:44;;;;;;;;;;;;;;;7.40;100.00;95973.72;5065737;28;20123;-66
2022/12/24 07:11:09;;;;;;;;;;;;;;;7.41;100.00;95971.94;5047850;28;20010;-63
2022/12/24 07:13:35;;;;;;;6.80;6.30;;;;;;;7.41;100.00;95985.03;5064219;28;19948;-62
2022/12/24 07:16:01;;;;;;;7.68;6.97;;;;;;;7.45;100.00;95986.47;5060230;28;20024;-62
2022/12/24 07:18:27;;;;;;;12.77;9.45;;;;;;;7.45;100.00;95991.72;5065063;28;20498;-62
2022/12/24 07:20:52;;;;;;;9.45;8.65;;;;;;;7.49;100.00;95997.56;5065340;28;20028;-62
2022/12/24 07:23:18;;;;;;;9.18;8.38;;;;;;;7.54;100.00;95991.03;5059579;28;20497;-62
2022/12/24 07:25:43;;;;;;;9.48;8.48;;;;;;;7.61;100.00;95988.78;5065146;28;20040;-59
2022/12/24 07:28:08;;;;;;;8.35;6.75;;;;;;;7.67;100.00;95988.31;5062552;28;20426;-62
2022/12/24 07:30:34;;;;;;;9.25;6.68;;;;;;;7.56;100.00;95985.66;5062505;28;20107;-61
2022/12/24 07:32:59;;;;;;;7.35;6.35;;;;;;;7.50;100.00;95988.75;5064000;28;20494;-61
2022/12/24 07:35:25;;;;;;;7.80;7.10;;;;;;;7.45;100.00;95989.09;5064357;28;20049;-60
2022/12/24 07:37:50;;;;;;;7.55;6.88;;;;;;;7.40;100.00;95992.06;5061163;28;20043;-61
2022/12/24 07:40:16;;;;;;;9.40;8.15;;;;;;;7.41;100.00;95996.38;5066980;28;20502;-62
2022/12/24 07:42:41;;;;;;;10.90;9.90;;;;;;;7.42;100.00;95991.94;5066165;28;20075;-60
2022/12/24 07:45:07;;;;;;;9.10;8.25;;;;;;;7.40;100.00;95989.44;5062374;28;20037;-59
2022/12/24 07:47:33;;;;;;;7.40;6.65;;;;;;;7.39;100.00;95981.72;5066743;28;20051;-60
2022/12/24 07:49:59;;;;;;;5.32;4.93;;;;;;;7.42;100.00;95978.84;5051110;28;20395;-62
2022/12/24 07:52:24;;;;;;;5.30;4.00;;;;;;;7.47;100.00;95970.66;5064318;28;20059;-61
2022/12/24 07:54:49;;;;;;;5.38;4.80;;;;;;;7.50;100.00;95967.81;5067177;28;20083;-61
2022/12/24 07:57:15;;;;;;;8.48;7.68;;;;;;;7.54;100.00;95971.84;5067723;28;20044;-61
2022/12/24 07:59:40;;;;;;;9.13;8.43;;;;;;;7.62;100.00;95979.13;5064282;28;20044;-61
2022/12/24 08:02:05;;;;;;;9.13;8.02;;;;;;;7.60;100.00;95992.34;5066908;28;20505;-63
2022/12/24 08:04:35;;;;;;;8.98;7.03;;;;;;;7.64;100.00;95999.03;5064288;28;20068;-61
2022/12/24 08:07:00;;;;;;;7.38;6.68;;;;;;;7.70;100.00;96005.59;5067025;28;20036;-59
2022/12/24 08:09:25;;;;;;;8.35;7.13;;;;;;;7.73;100.00;96010.59;5060229;28;20501;-60
2022/12/24 08:11:51;;;;;;;29.20;26.10;;;;;;;7.78;100.00;96007.63;5065457;28;20032;-59
2022/12/24 08:14:16;;;;;;;24.33;22.08;;;;;;;7.77;100.00;96011.19;5065487;28;20036;-59
2022/12/24 08:16:41;;;;;;;21.20;19.20;;;;;;;7.82;100.00;96004.66;5068379;28;20027;-59
2022/12/24 08:19:07;;;;;;;13.73;12.00;;;;;;;7.85;100.00;96006.22;5068414;28;20040;-59
2022/12/24 08:21:32;;;;;;;12.48;11.38;;;;;;;7.91;100.00;95997.88;5063311;28;20044;-60
2022/12/24 08:23:57;;;;;;;9.75;8.77;;;;;;;7.92;100.00;95989.06;5064200;28;20464;-61
2022/12/24 08:26:23;;;;;;;10.23;9.23;;;;;;;7.95;100.00;95994.06;5066238;28;20036;-58
2022/12/24 08:28:48;;;;;;;9.80;8.90;;;;;;;7.97;100.00;95996.59;5065835;28;20044;-59
2022/12/24 08:31:14;;;;;;;10.35;8.80;;;;;;;8.01;100.00;95990.97;5067646;28;20036;-59
2022/12/24 08:33:40;;;;;;;13.10;7.65;;;;;;;8.10;100.00;95983.34;5068202;28;20117;-59
2022/12/24 08:36:05;;;;;;;8.52;7.22;;;;;;;8.16;100.00;95972.38;5069480;28;20665;-59
2022/12/24 08:38:31;;;;;;;9.15;8.27;;;;;;;8.26;100.00;95959.38;5064524;28;20040;-60
2022/12/24 08:40:56;;;;;;;7.90;7.28;;;;;;;8.40;100.00;95971.41;5068941;28;20037;-60
2022/12/24 08:43:24;;;;;;;10.07;9.10;;;;;;;8.43;100.00;95981.66;5068349;28;20040;-58
2022/12/24 08:45:50;;;;;;;10.55;9.55;;;;;;;8.44;100.00;96004.31;5050481;28;20449;-62
2022/12/24 08:48:16;;;;;;;9.27;8.35;;;;;;;8.46;100.00;96007.63;5068525;28;20040;-61
2022/12/24 08:50:41;;;;;;;9.30;8.40;;;;;;;8.46;100.00;96011.13;5072178;28;20178;-62
2022/12/24 08:53:08;;;;;;;11.50;10.35;;;;;;;8.50;100.00;96019.59;5064876;28;20058;-61
2022/12/24 08:55:33;;;;;;;11.38;10.48;;;;;;;8.54;100.00;96022.81;5062181;28;20112;-63
2022/12/24 08:57:59;;;;;;;12.23;10.50;;;;;;;8.58;100.00;96022.47;5059150;28;20049;-62
2022/12/24 09:00:24;;;;;;;9.45;8.73;;;;;;;8.60;100.00;96009.19;5064354;28;20050;-62
2022/12/24 09:02:50;;;;;;;9.45;8.55;;;;;;;8.77;100.00;96010.50;5069903;28;20071;-64
2022/12/24 09:05:15;;;;;;;10.27;9.38;;;;;;;8.67;100.00;96002.53;5069112;28;20511;-62
2022/12/24 09:07:40;;;;;;;9.65;8.68;;;;;;;8.63;100.00;96018.63;5067496;28;20071;-62
2022/12/24 09:10:06;;;;;;;10.90;9.80;;;;;;;8.47;100.00;96019.81;5070263;28;20573;-62
2022/12/24 09:12:32;;;;;;;12.25;11.15;;;;;;;8.44;100.00;96005.16;5064398;28;20452;-63
2022/12/24 09:14:57;;;;;;;13.65;11.70;;;;;;;8.51;100.00;96010.78;5065650;28;20025;-62
2022/12/24 09:17:22;;;;;;;10.65;9.75;;;;;;;8.66;100.00;96008.72;5065977;28;20028;-62
2022/12/24 09:19:48;;;;;;;11.15;10.00;;;;;;;8.80;100.00;96012.03;5071566;28;20029;-62
2022/12/24 09:22:13;;;;;;;9.60;8.60;;;;;;;8.96;100.00;96011.66;5068741;28;20108;-61
2022/12/24 09:24:39;;;;;;;9.25;8.23;;;;;;;9.14;100.00;96025.91;5035574;28;20079;-62
2022/12/24 09:27:04;;;;;;;10.68;9.68;;;;;;;9.15;100.00;96019.69;5066078;28;20052;-62
2022/12/24 09:29:30;;;;;;;13.00;10.60;;;;;;;9.17;100.00;96015.16;5067940;28;20036;-62
2022/12/24 09:31:56;;;;;;;11.65;10.55;;;;;;;9.24;100.00;96020.72;5067799;28;20071;-62
2022/12/24 09:34:22;;;;;;;12.13;10.73;;;;;;;9.28;100.00;96019.53;5069933;28;20467;-62
2022/12/24 09:36:47;;;;;;;7.53;6.90;;;;;;;9.33;100.00;96011.25;5062393;28;20036;-62
2022/12/24 09:39:13;;;;;;;8.57;7.30;;;;;;;9.46;100.00;96017.19;5065986;28;20696;-62
2022/12/24 09:41:45;;;;;;;8.60;7.75;;;;;;;9.64;100.00;96018.41;5058864;28;20406;-65
2022/12/24 09:44:13;;;;;;;7.40;6.30;;;;;;;9.81;100.00;96009.09;5059382;28;20039;-58
2022/12/24 09:46:40;;;;;;;7.28;6.05;;;;;;;9.83;100.00;96008.00;5061611;28;20109;-58
2022/12/24 09:49:17;;;;;;;6.47;5.88;;;;;;;9.86;100.00;96002.47;5057688;28;20509;-58
2022/12/24 09:51:46;;;;;;;28.25;22.73;;;;;;;9.84;100.00;96003.59;5062348;28;20040;-58
2022/12/24 09:54:22;;;;;;;15.88;13.55;;;;;;;9.85;100.00;96000.00;5063538;28;20048;-58
2022/12/24 09:56:49;;;;;;;8.70;7.95;;;;;;;9.95;100.00;95994.78;5059098;28;20438;-58
2022/12/24 09:59:19;;;;;;;78.10;42.45;;;;;;;10.09;100.00;95990.97;5062262;28;20124;-57
2022/12/24 10:01:45;;;;;;;22.48;17.10;;;;;;;10.12;100.00;95982.81;5059459;28;20048;-67
2022/12/24 10:04:23;;;;;;;6.35;5.70;;;;;;;10.13;100.00;95981.84;5062282;28;20036;-59
2022/12/24 10:06:49;;;;;;;11.20;10.32;;;;;;;10.24;100.00;95981.75;5058987;28;20522;-59
2022/12/24 10:09:29;;;;;;;5.45;5.05;;;;;;;10.45;100.00;95984.34;5067823;28;20064;-59
2022/12/24 10:12:26;;;;;;;4.80;4.40;;;;;;;10.48;100.00;95975.34;5066025;28;20041;-59
2022/12/24 10:15:10;;;;;;;3.55;3.30;;;;;;;10.48;100.00;95971.91;5060984;28;20033;-59
2022/12/24 10:18:06;;;;;;;3.72;3.53;;;;;;;10.50;100.00;95977.84;5057360;28;20502;-59
2022/12/24 10:20:55;;;;;;;3.60;3.30;;;;;;;10.53;100.00;95973.16;5063326;28;20563;-60
2022/12/24 10:23:38;;;;;;;3.33;3.13;;;;;;;10.55;100.00;95975.66;5039368;28;20116;-60
2022/12/24 10:26:26;;;;;;;3.88;3.58;;;;;;;10.64;100.00;95982.75;5063768;28;20528;-60
2022/12/24 10:29:11;;;;;;;2.92;2.72;;;;;;;10.81;100.00;95985.66;5065657;28;20029;-60
2022/12/24 10:31:55;;;;;;;2.28;2.10;;;;;;;10.73;100.00;95981.94;5068200;28;20098;-60
2022/12/24 10:34:31;;;;;;;3.47;2.72;;;;;;;10.63;100.00;95977.59;5067904;28;20028;-60
2022/12/24 10:36:57;;;;;;;5.75;5.25;;;;;;;10.71;100.00;95977.75;5067521;28;20102;-62
2022/12/24 10:39:25;;;;;;;7.90;6.68;;;;;;;10.61;100.00;95977.75;5064626;28;20037;-58
2022/12/24 10:41:56;;;;;;;4.68;4.30;;;;;;;10.89;100.00;95970.84;5072898;28;20037;-62
2022/12/24 10:44:25;;;;;;;5.57;4.88;;;;;;;10.79;100.00;95964.75;5065088;28;20040;-64
2022/12/24 10:46:50;;;;;;;4.65;4.30;;;;;;;10.82;100.00;95958.38;5064865;28;20147;-63
2022/12/24 10:49:30;;;;;;;5.10;4.60;;;;;;;10.88;100.00;95950.75;5066655;28;20585;-65
2022/12/24 10:52:01;;;;;;;4.10;3.80;;;;;;;10.96;100.00;95941.34;5065936;28;20036;-65
2022/12/24 10:54:28;;;;;;;3.50;3.30;;;;;;;10.89;100.00;95946.31;5065929;28;20052;-63
2022/12/24 10:56:59;;;;;;;4.82;3.95;;;;;;;10.97;100.00;95943.00;5071639;28;20047;-63
2022/12/24 10:59:38;;;;;;;4.25;3.20;;;;;;;11.09;100.00;95943.69;5070037;28;20028;-67
2022/12/24 11:02:43;;;;;;;2.70;2.60;;;;;;;11.12;100.00;95943.41;5067903;28;20433;-65
2022/12/24 11:05:27;;;;;;;2.75;2.53;;;;;;;11.28;100.00;95946.34;5066682;28;20559;-64
2022/12/24 11:08:04;;;;;;;4.03;3.70;;;;;;;11.52;100.00;95957.38;5057848;28;20081;-64
2022/12/24 11:10:31;;;;;;;5.00;3.00;;;;;;;11.68;100.00;95957.66;5061831;28;20520;-65
2022/12/24 11:12:57;;;;;;;3.75;2.65;;;;;;;11.81;100.00;95953.84;5062944;28;20032;-63
2022/12/24 11:15:28;;;;;;;2.10;2.00;;;;;;;11.80;100.00;95968.84;5064154;28;20037;-65
2022/12/24 11:17:58;;;;;;;4.25;2.50;;;;;;;11.81;100.00;95959.13;5064907;28;20036;-65
2022/12/24 11:20:27;;;;;;;5.47;4.03;;;;;;;12.03;100.00;95948.25;5062199;28;20556;-64
2022/12/24 11:22:53;;;;;;;3.83;2.75;;;;;;;12.15;100.00;95938.34;5065274;28;20813;-64
2022/12/24 11:25:18;;;;;;;5.47;3.05;;;;;;;12.34;100.00;95941.06;5064218;28;20115;-65
2022/12/24 11:27:49;;;;;;;4.22;2.88;;;;;;;12.40;100.00;95938.66;5059011;28;20120;-65
2022/12/24 11:30:14;;;;;;;3.70;3.40;;;;;;;12.48;100.00;95937.91;5065415;28;20452;-64
2022/12/24 11:32:48;;;;;;;3.13;2.80;;;;;;;12.80;100.00;95930.47;5062452;28;20043;-64
2022/12/24 11:35:20;;;;;;;2.90;2.63;;;;;;;13.27;100.00;95938.19;5065417;28;20036;-65
2022/12/24 11:38:07;;;;;;;2.10;1.90;;;;;;;13.24;100.00;95921.81;5061317;28;20075;-64
2022/12/24 11:40:39;;;;;;;2.00;1.90;;;;;;;13.39;100.00;95915.00;5065413;28;20094;-67